createdAt,value
2023-03-14T00:01:22.124Z,19.52
2023-03-14T00:03:50.455Z,19.44
2023-03-14T00:06:20.290Z,19.34
2023-03-14T00:08:49.141Z,19.23
2023-03-14T00:11:20.659Z,19.13
2023-03-14T00:13:53.328Z,19.03
2023-03-14T00:16:22.248Z,19.01
2023-03-14T00:18:51.151Z,19.01
2023-03-14T00:21:20.303Z,19.03
2023-03-14T00:23:48.623Z,19.00
2023-03-14T00:26:20.427Z,18.91
2023-03-14T00:28:49.656Z,18.80
2023-03-14T00:31:18.687Z,18.70
2023-03-14T00:33:47.867Z,18.66
2023-03-14T00:36:19.261Z,18.57
2023-03-14T00:38:50.244Z,18.45
2023-03-14T00:41:21.068Z,18.37
2023-03-14T00:43:49.503Z,18.33
2023-03-14T00:46:18.726Z,18.31
2023-03-14T00:48:48.152Z,18.28
2023-03-14T00:51:17.011Z,18.28
2023-03-14T00:53:45.754Z,18.28
2023-03-14T00:56:15.034Z,18.27
2023-03-14T00:58:43.395Z,18.27
2023-03-14T01:01:22.227Z,18.28
2023-03-14T01:03:54.298Z,18.23
2023-03-14T01:06:28.656Z,18.19
2023-03-14T01:08:58.180Z,18.13
2023-03-14T01:11:33.010Z,18.07
2023-03-14T01:14:02.314Z,18.04
2023-03-14T01:16:33.226Z,18.01
2023-03-14T01:19:01.588Z,17.94
2023-03-14T01:21:36.000Z,17.86
2023-03-14T01:24:05.633Z,17.83
2023-03-14T01:26:36.341Z,17.82
2023-03-14T01:29:05.884Z,17.78
2023-03-14T01:31:34.347Z,17.76
2023-03-14T01:34:03.011Z,17.72
2023-03-14T01:36:31.895Z,17.72
2023-03-14T01:39:00.187Z,17.73
2023-03-14T01:41:28.690Z,17.75
2023-03-14T01:43:56.932Z,17.66
2023-03-14T01:46:30.822Z,17.63
2023-03-14T01:49:28.927Z,17.59
2023-03-14T01:52:00.171Z,17.53
2023-03-14T01:54:53.907Z,17.43
2023-03-14T01:57:47.729Z,17.38
2023-03-14T02:00:23.003Z,17.28
2023-03-14T02:02:55.503Z,17.27
2023-03-14T02:05:34.297Z,17.20
2023-03-14T02:08:04.705Z,17.14
2023-03-14T02:10:42.954Z,17.08
2023-03-14T02:13:12.564Z,17.01
2023-03-14T02:15:41.506Z,16.95
2023-03-14T02:18:11.169Z,16.92
2023-03-14T02:20:42.271Z,16.95
2023-03-14T02:23:10.760Z,16.96
2023-03-14T02:26:00.502Z,16.96
2023-03-14T02:28:28.780Z,16.93
2023-03-14T02:30:56.995Z,16.92
2023-03-14T02:33:25.905Z,16.93
2023-03-14T02:36:06.647Z,16.95
2023-03-14T02:38:37.753Z,16.94
2023-03-14T02:41:06.308Z,16.92
2023-03-14T02:43:34.532Z,16.93
2023-03-14T02:46:04.046Z,16.93
2023-03-14T02:48:37.346Z,16.95
2023-03-14T02:51:05.825Z,16.93
2023-03-14T02:53:36.415Z,16.93
2023-03-14T02:56:05.361Z,16.95
2023-03-14T02:58:33.637Z,16.98
2023-03-14T03:01:01.921Z,16.98
2023-03-14T03:03:30.307Z,16.97
2023-03-14T03:05:59.437Z,16.92
2023-03-14T03:08:29.217Z,16.91
2023-03-14T03:10:59.932Z,16.92
2023-03-14T03:13:28.619Z,16.93
2023-03-14T03:15:57.643Z,16.92
2023-03-14T03:18:25.916Z,16.91
2023-03-14T03:20:54.167Z,16.93
2023-03-14T03:23:22.433Z,16.94
2023-03-14T03:25:52.871Z,16.95
2023-03-14T03:28:21.956Z,16.94
2023-03-14T03:30:50.273Z,16.91
2023-03-14T03:33:18.498Z,16.91
2023-03-14T03:35:51.936Z,16.88
2023-03-14T03:38:21.990Z,16.88
2023-03-14T03:40:50.240Z,16.87
2023-03-14T03:43:18.470Z,16.88
2023-03-14T03:45:46.701Z,16.88
2023-03-14T03:48:14.951Z,16.88
2023-03-14T03:50:47.991Z,16.86
2023-03-14T03:53:26.817Z,16.87
2023-03-14T03:56:00.837Z,16.87
2023-03-14T03:58:29.015Z,16.84
2023-03-14T04:00:57.262Z,16.81
2023-03-14T04:03:25.774Z,16.78
2023-03-14T04:06:08.257Z,16.73
2023-03-14T04:08:36.596Z,16.68
2023-03-14T04:11:06.143Z,16.64
2023-03-14T04:13:34.660Z,16.60
2023-03-14T04:16:03.171Z,16.58
2023-03-14T04:18:32.192Z,16.54
2023-03-14T04:21:00.721Z,16.52
2023-03-14T04:23:29.083Z,16.52
2023-03-14T04:25:57.354Z,16.51
2023-03-14T04:28:25.615Z,16.51
2023-03-14T04:30:53.894Z,16.50
2023-03-14T04:33:22.296Z,16.46
2023-03-14T04:35:52.018Z,16.43
2023-03-14T04:38:20.258Z,16.43
2023-03-14T04:40:48.461Z,16.44
2023-03-14T04:43:16.699Z,16.40
2023-03-14T04:45:45.385Z,16.42
2023-03-14T04:48:14.528Z,16.43
2023-03-14T04:50:42.766Z,16.43
2023-03-14T04:53:10.958Z,16.43
2023-03-14T04:55:39.130Z,16.44
2023-03-14T04:58:07.938Z,16.45
2023-03-14T05:00:38.733Z,16.45
2023-03-14T05:03:07.721Z,16.46
2023-03-14T05:05:36.038Z,16.46
2023-03-14T05:08:04.540Z,16.48
2023-03-14T05:10:32.726Z,16.48
2023-03-14T05:13:00.959Z,16.46
2023-03-14T05:15:29.387Z,16.45
2023-03-14T05:17:57.623Z,16.44
2023-03-14T05:20:25.809Z,16.40
2023-03-14T05:22:53.996Z,16.40
2023-03-14T05:25:22.204Z,16.38
2023-03-14T05:27:50.534Z,16.38
2023-03-14T05:30:18.917Z,16.36
2023-03-14T05:32:47.145Z,16.33
2023-03-14T05:35:15.385Z,16.29
2023-03-14T05:37:43.599Z,16.30
2023-03-14T05:40:12.503Z,16.28
2023-03-14T05:42:40.786Z,16.26
2023-03-14T05:45:09.461Z,16.24
2023-03-14T05:47:37.684Z,16.23
2023-03-14T05:50:06.257Z,16.23
2023-03-14T05:52:34.551Z,16.23
2023-03-14T05:55:02.779Z,16.24
2023-03-14T05:57:30.980Z,16.22
2023-03-14T05:59:59.172Z,16.21
2023-03-14T06:02:27.448Z,16.21
2023-03-14T06:04:55.709Z,16.20
2023-03-14T06:07:23.908Z,16.20
2023-03-14T06:09:52.269Z,16.19
2023-03-14T06:12:20.927Z,16.18
2023-03-14T06:14:49.260Z,16.15
2023-03-14T06:17:18.103Z,16.11
2023-03-14T06:19:46.321Z,16.07
2023-03-14T06:22:15.277Z,16.09
2023-03-14T06:24:43.667Z,16.13
2023-03-14T06:27:11.882Z,16.16
2023-03-14T06:29:40.103Z,16.12
2023-03-14T06:32:08.400Z,16.10
2023-03-14T06:34:36.633Z,16.08
2023-03-14T06:37:04.840Z,16.06
2023-03-14T06:39:33.397Z,16.05
2023-03-14T06:42:01.577Z,16.07
2023-03-14T06:44:29.734Z,16.05
2023-03-14T06:46:58.081Z,16.03
2023-03-14T06:49:26.422Z,16.02
2023-03-14T06:51:54.606Z,16.01
2023-03-14T06:54:22.816Z,16.00
2023-03-14T06:56:51.542Z,15.98
2023-03-14T06:59:19.822Z,15.98
2023-03-14T07:01:50.137Z,15.97
2023-03-14T07:04:19.476Z,15.94
2023-03-14T07:06:48.262Z,15.93
2023-03-14T07:09:18.888Z,15.92
2023-03-14T07:11:47.161Z,15.92
2023-03-14T07:14:15.346Z,15.89
2023-03-14T07:16:43.570Z,15.86
2023-03-14T07:19:11.766Z,15.85
2023-03-14T07:21:40.251Z,15.84
2023-03-14T07:24:08.625Z,15.81
2023-03-14T07:26:36.958Z,15.82
2023-03-14T07:29:05.167Z,15.80
2023-03-14T07:31:33.653Z,15.79
2023-03-14T07:34:01.956Z,15.79
2023-03-14T07:36:30.212Z,15.82
2023-03-14T07:38:58.479Z,15.84
2023-03-14T07:41:26.705Z,15.82
2023-03-14T07:43:54.902Z,15.79
2023-03-14T07:46:23.247Z,15.78
2023-03-14T07:48:51.763Z,15.79
2023-03-14T07:51:19.942Z,15.77
2023-03-14T07:53:48.117Z,15.78
2023-03-14T07:56:16.338Z,15.75
2023-03-14T07:58:44.527Z,15.74
2023-03-14T08:01:12.784Z,15.73
2023-03-14T08:03:41.020Z,15.75
2023-03-14T08:06:09.382Z,15.77
2023-03-14T08:08:37.552Z,15.77
2023-03-14T08:11:07.837Z,15.79
2023-03-14T08:13:36.725Z,15.79
2023-03-14T08:16:05.888Z,15.77
2023-03-14T08:18:34.291Z,15.76
2023-03-14T08:21:03.112Z,15.74
2023-03-14T08:23:31.319Z,15.73
2023-03-14T08:25:59.597Z,15.75
2023-03-14T08:28:32.317Z,15.72
2023-03-14T08:31:00.896Z,15.70
2023-03-14T08:33:31.450Z,15.71
2023-03-14T08:36:01.983Z,15.68
2023-03-14T08:38:30.958Z,15.66
2023-03-14T08:41:00.675Z,15.66
2023-03-14T08:43:30.310Z,15.68
2023-03-14T08:46:02.527Z,15.67
2023-03-14T08:48:32.233Z,15.66
2023-03-14T08:51:17.070Z,15.67
2023-03-14T08:53:45.296Z,15.69
2023-03-14T08:56:13.500Z,15.70
2023-03-14T08:58:43.149Z,15.67
2023-03-14T09:01:12.920Z,15.66
2023-03-14T09:03:41.355Z,15.63
2023-03-14T09:06:12.324Z,15.61
2023-03-14T09:08:40.505Z,15.61
2023-03-14T09:11:11.921Z,15.61
2023-03-14T09:13:40.314Z,15.59
2023-03-14T09:16:09.750Z,15.60
2023-03-14T09:18:38.667Z,15.59
2023-03-14T09:21:07.258Z,15.59
2023-03-14T09:23:35.611Z,15.58
2023-03-14T09:26:03.856Z,15.58
2023-03-14T09:28:32.291Z,15.60
2023-03-14T09:31:00.491Z,15.59
2023-03-14T09:33:28.929Z,15.59
2023-03-14T09:36:01.793Z,15.57
2023-03-14T09:38:30.272Z,15.56
2023-03-14T09:41:01.349Z,15.57
2023-03-14T09:43:33.618Z,15.57
2023-03-14T09:46:04.895Z,15.56
2023-03-14T09:48:35.962Z,15.54
2023-03-14T09:51:13.725Z,15.51
2023-03-14T09:53:44.955Z,15.52
2023-03-14T09:56:20.979Z,15.51
2023-03-14T09:59:02.111Z,15.48
2023-03-14T10:01:33.447Z,15.46
2023-03-14T10:04:25.038Z,15.41
2023-03-14T10:06:53.339Z,15.37
2023-03-14T10:09:29.375Z,15.35
2023-03-14T10:12:02.395Z,15.31
2023-03-14T10:14:46.736Z,15.28
2023-03-14T10:17:16.046Z,15.27
2023-03-14T10:19:56.068Z,15.26
2023-03-14T10:22:28.078Z,15.25
2023-03-14T10:25:01.263Z,15.24
2023-03-14T10:27:37.615Z,15.25
2023-03-14T10:30:09.850Z,15.25
2023-03-14T10:32:40.550Z,15.21
2023-03-14T10:35:17.561Z,15.15
2023-03-14T10:38:00.578Z,15.10
2023-03-14T10:40:41.997Z,15.05
2023-03-14T10:43:18.547Z,15.01
2023-03-14T10:45:53.426Z,14.98
2023-03-14T10:48:26.159Z,14.94
2023-03-14T10:51:10.727Z,14.92
2023-03-14T10:54:03.967Z,14.89
2023-03-14T10:56:39.722Z,14.89
2023-03-14T10:59:17.289Z,14.86
2023-03-14T11:01:55.330Z,14.82
2023-03-14T11:04:41.268Z,14.80
2023-03-14T11:07:18.210Z,14.79
2023-03-14T11:10:02.980Z,14.77
2023-03-14T11:12:45.942Z,14.76
2023-03-14T11:15:51.320Z,14.74
2023-03-14T11:18:57.260Z,14.71
2023-03-14T11:21:52.272Z,14.68
2023-03-14T11:24:44.569Z,14.69
2023-03-14T11:27:27.515Z,14.67
2023-03-14T11:30:04.380Z,14.66
2023-03-14T11:32:39.269Z,14.66
2023-03-14T11:35:26.406Z,14.64
2023-03-14T11:38:04.431Z,14.62
2023-03-14T11:40:35.505Z,14.60
2023-03-14T11:43:30.612Z,14.55
2023-03-14T11:46:11.655Z,14.53
2023-03-14T11:49:04.176Z,14.53
2023-03-14T11:51:38.903Z,14.50
2023-03-14T11:54:44.707Z,14.45
2023-03-14T11:57:17.486Z,14.45
2023-03-14T11:59:57.471Z,14.44
2023-03-14T12:02:34.432Z,14.43
2023-03-14T12:05:24.182Z,14.44
2023-03-14T12:08:10.934Z,14.45
2023-03-14T12:10:43.396Z,14.44
2023-03-14T12:13:13.662Z,14.44
2023-03-14T12:15:48.634Z,14.42
2023-03-14T12:18:44.321Z,14.43
2023-03-14T12:21:14.833Z,14.43
2023-03-14T12:23:59.274Z,14.44
2023-03-14T12:26:31.200Z,14.45
2023-03-14T12:28:59.362Z,14.45
2023-03-14T12:31:33.662Z,14.41
2023-03-14T12:34:14.322Z,14.41
2023-03-14T12:37:10.968Z,14.41
2023-03-14T12:40:00.629Z,14.40
2023-03-14T12:43:02.800Z,14.37
2023-03-14T12:45:36.997Z,14.33
2023-03-14T12:48:21.411Z,14.29
2023-03-14T12:50:58.587Z,14.17
2023-03-14T12:54:02.694Z,14.09
2023-03-14T12:56:45.840Z,14.02
2023-03-14T12:59:40.216Z,13.96
2023-03-14T13:02:08.320Z,13.92
2023-03-14T13:05:24.342Z,13.88
2023-03-14T13:07:57.089Z,13.83
2023-03-14T13:10:38.107Z,13.76
2023-03-14T13:13:28.749Z,13.71
2023-03-14T13:16:05.424Z,13.67
2023-03-14T13:18:38.063Z,13.64
2023-03-14T13:21:21.416Z,13.62
2023-03-14T13:24:24.701Z,13.57
2023-03-14T13:26:56.251Z,13.55
2023-03-14T13:29:27.608Z,13.53
2023-03-14T13:32:01.342Z,13.50
2023-03-14T13:34:38.729Z,13.48
2023-03-14T13:37:07.319Z,13.46
2023-03-14T13:39:35.572Z,13.46
2023-03-14T13:42:04.285Z,13.46
2023-03-14T13:44:34.088Z,13.46
2023-03-14T13:47:04.074Z,13.47
2023-03-14T13:49:37.313Z,13.47
2023-03-14T13:52:07.044Z,13.47
2023-03-14T13:54:35.547Z,13.45
2023-03-14T13:57:06.215Z,13.43
2023-03-14T13:59:36.901Z,13.44
2023-03-14T14:02:18.439Z,13.43
2023-03-14T14:04:48.568Z,13.43
2023-03-14T14:07:20.371Z,13.42
2023-03-14T14:09:51.939Z,13.41
2023-03-14T14:12:26.866Z,13.40
2023-03-14T14:15:03.841Z,13.40
2023-03-14T14:17:45.837Z,13.40
2023-03-14T14:20:25.290Z,13.41
2023-03-14T14:22:54.300Z,13.42
2023-03-14T14:25:22.625Z,13.42
2023-03-14T14:27:52.402Z,13.44
2023-03-14T14:30:20.592Z,13.45
2023-03-14T14:32:52.392Z,13.44
2023-03-14T14:35:32.710Z,13.47
2023-03-14T14:38:01.513Z,13.46
2023-03-14T14:40:32.066Z,13.46
2023-03-14T14:43:07.733Z,13.48
2023-03-14T14:45:37.183Z,13.49
2023-03-14T14:48:13.839Z,13.49
2023-03-14T14:50:59.328Z,13.50
2023-03-14T14:53:42.860Z,13.53
2023-03-14T14:56:24.320Z,13.53
2023-03-14T14:58:52.573Z,13.54
2023-03-14T15:01:24.496Z,13.57
2023-03-14T15:03:56.323Z,13.60
2023-03-14T15:06:30.312Z,13.61
2023-03-14T15:08:59.175Z,13.64
2023-03-14T15:11:28.520Z,13.66
2023-03-14T15:13:56.894Z,13.67
2023-03-14T15:16:30.463Z,13.69
2023-03-14T15:19:03.244Z,13.72
2023-03-14T15:21:35.272Z,13.75
2023-03-14T15:24:07.621Z,13.76
2023-03-14T15:26:35.960Z,13.80
2023-03-14T15:29:04.218Z,13.80
2023-03-14T15:31:32.547Z,13.82
2023-03-14T15:34:00.904Z,13.85
2023-03-14T15:36:35.417Z,13.88
2023-03-14T15:39:04.250Z,13.90
2023-03-14T15:41:32.652Z,13.93
2023-03-14T15:44:00.966Z,13.95
2023-03-14T15:46:31.005Z,13.94
2023-03-14T15:48:59.706Z,13.94
2023-03-14T15:51:27.983Z,13.96
2023-03-14T15:53:56.269Z,13.97
2023-03-14T15:56:26.770Z,13.99
2023-03-14T15:58:55.071Z,14.03
2023-03-14T16:01:23.366Z,14.04
2023-03-14T16:03:54.455Z,14.05
2023-03-14T16:06:22.628Z,14.07
2023-03-14T16:08:51.113Z,14.10
2023-03-14T16:11:22.970Z,14.08
2023-03-14T16:13:52.131Z,14.09
2023-03-14T16:16:20.750Z,14.11
2023-03-14T16:18:49.021Z,14.11
2023-03-14T16:21:19.779Z,14.07
2023-03-14T16:23:48.887Z,14.07
2023-03-14T16:26:20.424Z,14.05
2023-03-14T16:28:49.683Z,14.03
2023-03-14T16:31:21.947Z,14.06
2023-03-14T16:33:51.176Z,14.08
2023-03-14T16:36:19.795Z,14.09
2023-03-14T16:38:48.426Z,14.14
2023-03-14T16:41:19.379Z,14.15
2023-03-14T16:43:52.758Z,14.16
2023-03-14T16:46:23.283Z,14.16
2023-03-14T16:48:51.938Z,14.16
2023-03-14T16:51:20.310Z,14.17
2023-03-14T16:53:48.922Z,14.19
2023-03-14T16:56:17.565Z,14.20
2023-03-14T16:58:45.818Z,14.21
2023-03-14T17:01:18.936Z,14.23
2023-03-14T17:03:49.730Z,14.25
2023-03-14T17:06:26.879Z,14.26
2023-03-14T17:08:56.905Z,14.28
2023-03-14T17:11:25.225Z,14.31
2023-03-14T17:13:53.667Z,14.32
2023-03-14T17:16:23.564Z,14.33
2023-03-14T17:18:53.206Z,14.36
2023-03-14T17:21:22.314Z,14.40
2023-03-14T17:23:50.741Z,14.42
2023-03-14T17:26:19.690Z,14.44
2023-03-14T17:28:47.960Z,14.48
2023-03-14T17:31:18.935Z,14.47
2023-03-14T17:33:47.622Z,14.48
2023-03-14T17:36:16.391Z,14.51
2023-03-14T17:38:45.100Z,14.52
2023-03-14T17:41:15.798Z,14.53
2023-03-14T17:43:44.747Z,14.53
2023-03-14T17:46:18.372Z,14.53
2023-03-14T17:48:48.577Z,14.55
2023-03-14T17:51:17.556Z,14.55
2023-03-14T17:53:45.966Z,14.57
2023-03-14T17:56:14.353Z,14.62
2023-03-14T17:58:44.799Z,14.65
2023-03-14T18:01:18.981Z,14.69
2023-03-14T18:03:48.054Z,14.74
2023-03-14T18:06:18.097Z,14.77
2023-03-14T18:08:47.749Z,14.79
2023-03-14T18:11:16.318Z,14.83
2023-03-14T18:13:45.250Z,14.90
2023-03-14T18:16:17.762Z,14.98
2023-03-14T18:18:50.276Z,15.05
2023-03-14T18:21:19.546Z,15.11
2023-03-14T18:23:49.277Z,15.16
2023-03-14T18:26:17.520Z,15.20
2023-03-14T18:28:46.748Z,15.25
2023-03-14T18:31:19.022Z,15.26
2023-03-14T18:33:48.723Z,15.28
2023-03-14T18:36:17.448Z,15.32
2023-03-14T18:38:47.381Z,15.35
2023-03-14T18:41:17.923Z,15.37
2023-03-14T18:43:46.603Z,15.40
2023-03-14T18:46:15.216Z,15.42
2023-03-14T18:48:43.659Z,15.42
2023-03-14T18:51:16.015Z,15.44
2023-03-14T18:53:45.754Z,15.47
2023-03-14T18:56:14.474Z,15.51
2023-03-14T18:58:42.872Z,15.58
2023-03-14T19:01:13.258Z,15.65
2023-03-14T19:03:41.865Z,15.70
2023-03-14T19:06:11.093Z,15.77
2023-03-14T19:08:40.072Z,15.85
2023-03-14T19:11:10.038Z,15.93
2023-03-14T19:13:39.063Z,16.04
2023-03-14T19:16:08.412Z,16.16
2023-03-14T19:18:36.694Z,16.26
2023-03-14T19:21:08.388Z,16.39
2023-03-14T19:23:38.733Z,16.56
2023-03-14T19:26:07.930Z,16.81
2023-03-14T19:28:36.230Z,16.99
2023-03-14T19:31:05.893Z,17.09
2023-03-14T19:33:34.114Z,17.18
2023-03-14T19:36:03.280Z,17.28
2023-03-14T19:38:31.584Z,17.58
2023-03-14T19:41:00.604Z,17.80
2023-03-14T19:43:28.838Z,17.96
2023-03-14T19:45:57.170Z,18.06
2023-03-14T19:48:30.815Z,18.19
2023-03-14T19:51:01.360Z,18.21
2023-03-14T19:53:30.193Z,18.27
2023-03-14T19:55:58.574Z,18.32
2023-03-14T19:58:26.884Z,18.36
2023-03-14T20:00:58.040Z,18.47
2023-03-14T20:03:27.242Z,18.59
2023-03-14T20:05:55.696Z,18.57
2023-03-14T20:08:24.739Z,18.68
2023-03-14T20:10:53.159Z,18.72
2023-03-14T20:13:22.654Z,18.61
2023-03-14T20:15:55.212Z,18.61
2023-03-14T20:18:24.104Z,18.60
2023-03-14T20:20:53.170Z,18.78
2023-03-14T20:23:22.039Z,18.91
2023-03-14T20:25:58.320Z,19.04
2023-03-14T20:28:27.097Z,19.08
2023-03-14T20:30:55.780Z,19.16
2023-03-14T20:33:24.207Z,19.28
2023-03-14T20:36:00.754Z,19.22
2023-03-14T20:38:29.776Z,19.26
2023-03-14T20:41:00.182Z,19.38
2023-03-14T20:43:29.457Z,19.49
2023-03-14T20:46:02.305Z,19.52
2023-03-14T20:48:32.662Z,19.55
2023-03-14T20:51:02.417Z,19.67
2023-03-14T20:53:30.730Z,19.65
2023-03-14T20:55:59.419Z,19.71
2023-03-14T20:58:27.705Z,19.68
2023-03-14T21:00:57.842Z,19.76
2023-03-14T21:03:26.487Z,19.90
2023-03-14T21:05:54.916Z,20.08
2023-03-14T21:08:25.418Z,20.12
2023-03-14T21:10:55.900Z,20.15
2023-03-14T21:13:24.877Z,20.11
2023-03-14T21:15:53.500Z,20.05
2023-03-14T21:18:23.957Z,19.93
2023-03-14T21:20:55.576Z,19.84
2023-03-14T21:23:29.931Z,19.90
2023-03-14T21:25:58.401Z,20.07
2023-03-14T21:28:26.725Z,20.21
2023-03-14T21:30:55.716Z,20.32
2023-03-14T21:33:24.747Z,20.27
2023-03-14T21:35:54.051Z,20.37
2023-03-14T21:38:22.369Z,20.39
2023-03-14T21:40:57.914Z,20.44
2023-03-14T21:43:27.327Z,20.40
2023-03-14T21:45:55.934Z,20.41
2023-03-14T21:48:24.173Z,20.44
2023-03-14T21:50:52.933Z,20.49
2023-03-14T21:53:21.400Z,20.50
2023-03-14T21:55:49.933Z,20.53
2023-03-14T21:58:18.208Z,20.59
2023-03-14T22:00:50.159Z,20.57
2023-03-14T22:03:25.326Z,20.46
2023-03-14T22:05:53.644Z,20.55
2023-03-14T22:08:24.336Z,20.63
2023-03-14T22:10:55.187Z,20.82
2023-03-14T22:13:25.941Z,21.03
2023-03-14T22:15:54.412Z,21.13
2023-03-14T22:18:22.669Z,21.26
2023-03-14T22:20:50.989Z,21.36
2023-03-14T22:23:19.188Z,21.45
2023-03-14T22:25:52.147Z,21.71
2023-03-14T22:28:20.793Z,21.84
2023-03-14T22:30:50.466Z,21.83
2023-03-14T22:33:20.158Z,21.86
2023-03-14T22:35:53.684Z,21.68
2023-03-14T22:38:21.992Z,21.66
2023-03-14T22:40:50.261Z,21.58
2023-03-14T22:43:18.803Z,21.44
2023-03-14T22:45:47.995Z,21.18
2023-03-14T22:48:16.243Z,20.60
2023-03-14T22:50:44.597Z,20.48
2023-03-14T22:53:12.885Z,20.34
2023-03-14T22:55:41.545Z,20.48
2023-03-14T22:58:10.599Z,20.62
2023-03-14T23:00:40.051Z,20.49
2023-03-14T23:03:08.408Z,20.53
2023-03-14T23:05:36.749Z,20.59
2023-03-14T23:08:05.022Z,20.13
2023-03-14T23:10:33.944Z,19.85
2023-03-14T23:13:02.207Z,19.72
2023-03-14T23:15:30.494Z,19.45
2023-03-14T23:17:59.106Z,19.18
2023-03-14T23:20:28.607Z,18.96
2023-03-14T23:22:56.883Z,18.83
2023-03-14T23:25:25.248Z,18.88
2023-03-14T23:27:54.995Z,18.90
2023-03-14T23:30:23.680Z,18.85
2023-03-14T23:32:52.220Z,18.82
2023-03-14T23:35:20.876Z,18.79
2023-03-14T23:37:50.049Z,18.79
2023-03-14T23:40:18.925Z,18.72
2023-03-14T23:42:49.287Z,18.58
2023-03-14T23:45:17.662Z,18.50
2023-03-14T23:47:45.845Z,18.41
2023-03-14T23:50:14.104Z,18.36
2023-03-14T23:52:42.399Z,18.32
2023-03-14T23:55:11.425Z,18.25
2023-03-14T23:57:39.659Z,18.17
